Terminal Aerodrome Forecast
Issued by NWS

Current Version | Previous Version | Graphics & Text | Print | Product List | Glossary On
Versions: 1 2 3 4 5 6 7 8 9 10 11 12 13 14 15 16 17 18 19 20 21 22 23 24 25
000
FTUS41 KRLX 011510 AAA
TAFCKB
TAF AMD
KCKB 011510Z 0115/0212 18003KT P6SM FEW035 SCT250
     FM020700 00000KT 6SM BR SCT050
     FM021000 00000KT 6SM BR SCT003
     FM021100 00000KT 6SM BR BKN003=

USA.gov is the U.S. government's official web portal to all federal, state and local government web resources and services.